sensor_id;sensor_type;location;lat;lon;timestamp;temperature;humidity
1594;DHT22;790;47.000;16.084;2023-05-29T00:01:41;14.30;99.90
1594;DHT22;790;47.000;16.084;2023-05-29T00:04:09;14.20;99.90
1594;DHT22;790;47.000;16.084;2023-05-29T00:06:36;14.20;99.90
1594;DHT22;790;47.000;16.084;2023-05-29T00:09:04;14.20;99.90
1594;DHT22;790;47.000;16.084;2023-05-29T00:11:31;14.20;99.90
1594;DHT22;790;47.000;16.084;2023-05-29T00:13:59;14.20;99.90
1594;DHT22;790;47.000;16.084;2023-05-29T00:16:28;14.10;99.90
1594;DHT22;790;47.000;16.084;2023-05-29T00:18:55;14.10;99.90
1594;DHT22;790;47.000;16.084;2023-05-29T00:21:23;14.00;99.90
1594;DHT22;790;47.000;16.084;2023-05-29T00:23:54;14.00;99.90
1594;DHT22;790;47.000;16.084;2023-05-29T00:26:23;13.90;99.90
1594;DHT22;790;47.000;16.084;2023-05-29T00:28:50;14.00;99.90
1594;DHT22;790;47.000;16.084;2023-05-29T00:31:18;13.90;99.90
1594;DHT22;790;47.000;16.084;2023-05-29T00:33:45;14.00;99.90
1594;DHT22;790;47.000;16.084;2023-05-29T00:36:13;13.90;99.90
1594;DHT22;790;47.000;16.084;2023-05-29T00:38:42;13.90;99.90
1594;DHT22;790;47.000;16.084;2023-05-29T00:41:13;13.90;99.90
1594;DHT22;790;47.000;16.084;2023-05-29T00:43:42;13.90;99.90
1594;DHT22;790;47.000;16.084;2023-05-29T00:46:09;13.90;99.90
1594;DHT22;790;47.000;16.084;2023-05-29T00:48:39;13.90;99.90
1594;DHT22;790;47.000;16.084;2023-05-29T00:51:08;13.80;99.90
1594;DHT22;790;47.000;16.084;2023-05-29T00:53:35;13.80;99.90
1594;DHT22;790;47.000;16.084;2023-05-29T00:56:02;13.70;99.90
1594;DHT22;790;47.000;16.084;2023-05-29T00:58:31;13.70;99.90
1594;DHT22;790;47.000;16.084;2023-05-29T01:01:00;13.60;99.90
1594;DHT22;790;47.000;16.084;2023-05-29T01:03:27;13.70;99.90
1594;DHT22;790;47.000;16.084;2023-05-29T01:05:54;13.70;99.90
1594;DHT22;790;47.000;16.084;2023-05-29T01:08:23;13.80;99.90
1594;DHT22;790;47.000;16.084;2023-05-29T01:10:51;13.80;99.90
1594;DHT22;790;47.000;16.084;2023-05-29T01:13:27;13.80;99.90
1594;DHT22;790;47.000;16.084;2023-05-29T01:16:01;13.70;99.90
1594;DHT22;790;47.000;16.084;2023-05-29T01:18:37;13.70;99.90
1594;DHT22;790;47.000;16.084;2023-05-29T01:21:09;13.70;99.90
1594;DHT22;790;47.000;16.084;2023-05-29T01:23:51;13.70;99.90
1594;DHT22;790;47.000;16.084;2023-05-29T01:29:14;13.60;99.90
1594;DHT22;790;47.000;16.084;2023-05-29T01:31:43;13.60;99.90
1594;DHT22;790;47.000;16.084;2023-05-29T01:34:10;13.50;99.90
1594;DHT22;790;47.000;16.084;2023-05-29T01:36:37;13.50;99.90
1594;DHT22;790;47.000;16.084;2023-05-29T01:39:05;13.60;99.90
1594;DHT22;790;47.000;16.084;2023-05-29T01:41:34;13.50;99.90
1594;DHT22;790;47.000;16.084;2023-05-29T01:44:04;13.50;99.90
1594;DHT22;790;47.000;16.084;2023-05-29T01:46:36;13.50;99.90
1594;DHT22;790;47.000;16.084;2023-05-29T01:49:04;13.50;99.90
1594;DHT22;790;47.000;16.084;2023-05-29T01:51:31;13.40;99.90
1594;DHT22;790;47.000;16.084;2023-05-29T01:53:59;13.40;99.90
1594;DHT22;790;47.000;16.084;2023-05-29T01:56:26;13.30;99.90
1594;DHT22;790;47.000;16.084;2023-05-29T01:58:55;13.30;99.90
1594;DHT22;790;47.000;16.084;2023-05-29T02:01:23;13.30;99.90
1594;DHT22;790;47.000;16.084;2023-05-29T02:03:51;13.30;99.90
1594;DHT22;790;47.000;16.084;2023-05-29T02:06:18;13.20;99.90
1594;DHT22;790;47.000;16.084;2023-05-29T02:08:46;13.20;99.90
1594;DHT22;790;47.000;16.084;2023-05-29T02:11:13;13.20;99.90
1594;DHT22;790;47.000;16.084;2023-05-29T02:13:41;13.20;99.90
1594;DHT22;790;47.000;16.084;2023-05-29T02:16:08;13.20;99.90
1594;DHT22;790;47.000;16.084;2023-05-29T02:18:35;13.20;99.90
1594;DHT22;790;47.000;16.084;2023-05-29T02:21:04;13.10;99.90
1594;DHT22;790;47.000;16.084;2023-05-29T02:23:31;13.10;99.90
1594;DHT22;790;47.000;16.084;2023-05-29T02:25:58;13.10;99.90
1594;DHT22;790;47.000;16.084;2023-05-29T02:28:25;13.10;99.90
1594;DHT22;790;47.000;16.084;2023-05-29T02:30:53;13.10;99.90
1594;DHT22;790;47.000;16.084;2023-05-29T02:33:20;13.00;99.90
1594;DHT22;790;47.000;16.084;2023-05-29T02:35:47;12.90;99.90
1594;DHT22;790;47.000;16.084;2023-05-29T02:38:15;12.90;99.90
1594;DHT22;790;47.000;16.084;2023-05-29T02:40:42;12.90;99.90
1594;DHT22;790;47.000;16.084;2023-05-29T02:43:13;13.00;99.90
1594;DHT22;790;47.000;16.084;2023-05-29T02:45:41;13.00;99.90
1594;DHT22;790;47.000;16.084;2023-05-29T02:48:08;13.00;99.90
1594;DHT22;790;47.000;16.084;2023-05-29T02:50:35;13.00;99.90
1594;DHT22;790;47.000;16.084;2023-05-29T02:53:02;13.00;99.90
1594;DHT22;790;47.000;16.084;2023-05-29T02:55:30;12.90;99.90
1594;DHT22;790;47.000;16.084;2023-05-29T02:58:01;12.90;99.90
1594;DHT22;790;47.000;16.084;2023-05-29T03:00:29;12.80;99.90
1594;DHT22;790;47.000;16.084;2023-05-29T03:02:56;12.80;99.90
1594;DHT22;790;47.000;16.084;2023-05-29T03:05:23;12.80;99.90
1594;DHT22;790;47.000;16.084;2023-05-29T03:07:57;12.80;99.90
1594;DHT22;790;47.000;16.084;2023-05-29T03:10:24;12.80;99.90
1594;DHT22;790;47.000;16.084;2023-05-29T03:12:56;12.80;99.90
1594;DHT22;790;47.000;16.084;2023-05-29T03:15:24;12.70;99.90
1594;DHT22;790;47.000;16.084;2023-05-29T03:17:52;12.70;99.90
1594;DHT22;790;47.000;16.084;2023-05-29T03:20:19;12.70;99.90
1594;DHT22;790;47.000;16.084;2023-05-29T03:22:47;12.80;99.90
1594;DHT22;790;47.000;16.084;2023-05-29T03:25:15;12.80;99.90
1594;DHT22;790;47.000;16.084;2023-05-29T03:27:42;12.70;99.90
1594;DHT22;790;47.000;16.084;2023-05-29T03:30:12;12.80;99.90
1594;DHT22;790;47.000;16.084;2023-05-29T03:32:39;12.80;99.90
1594;DHT22;790;47.000;16.084;2023-05-29T03:35:07;12.70;99.90
1594;DHT22;790;47.000;16.084;2023-05-29T03:37:35;12.70;99.90
1594;DHT22;790;47.000;16.084;2023-05-29T03:40:02;12.70;99.90
1594;DHT22;790;47.000;16.084;2023-05-29T03:42:30;12.70;99.90
1594;DHT22;790;47.000;16.084;2023-05-29T03:44:58;12.70;99.90
1594;DHT22;790;47.000;16.084;2023-05-29T03:47:26;12.70;99.90
1594;DHT22;790;47.000;16.084;2023-05-29T03:49:53;12.70;99.90
1594;DHT22;790;47.000;16.084;2023-05-29T03:52:20;12.80;99.90
1594;DHT22;790;47.000;16.084;2023-05-29T03:54:47;12.80;99.90
1594;DHT22;790;47.000;16.084;2023-05-29T03:57:19;12.80;99.90
1594;DHT22;790;47.000;16.084;2023-05-29T03:59:46;12.80;99.90
1594;DHT22;790;47.000;16.084;2023-05-29T04:02:13;12.70;99.90
1594;DHT22;790;47.000;16.084;2023-05-29T04:04:42;12.70;99.90
1594;DHT22;790;47.000;16.084;2023-05-29T04:07:09;12.80;99.90
1594;DHT22;790;47.000;16.084;2023-05-29T04:09:36;12.80;99.90
1594;DHT22;790;47.000;16.084;2023-05-29T04:12:04;12.80;99.90
1594;DHT22;790;47.000;16.084;2023-05-29T04:14:31;12.80;99.90
1594;DHT22;790;47.000;16.084;2023-05-29T04:16:58;12.80;99.90
1594;DHT22;790;47.000;16.084;2023-05-29T04:19:25;12.70;99.90
1594;DHT22;790;47.000;16.084;2023-05-29T04:21:54;12.80;99.90
1594;DHT22;790;47.000;16.084;2023-05-29T04:24:21;12.80;99.90
1594;DHT22;790;47.000;16.084;2023-05-29T04:26:50;12.80;99.90
1594;DHT22;790;47.000;16.084;2023-05-29T04:29:18;12.90;99.90
1594;DHT22;790;47.000;16.084;2023-05-29T04:31:45;12.90;99.90
1594;DHT22;790;47.000;16.084;2023-05-29T04:34:12;13.00;99.90
1594;DHT22;790;47.000;16.084;2023-05-29T04:36:42;13.10;99.90
1594;DHT22;790;47.000;16.084;2023-05-29T04:39:17;13.20;99.90
1594;DHT22;790;47.000;16.084;2023-05-29T04:41:44;13.30;99.90
1594;DHT22;790;47.000;16.084;2023-05-29T04:44:11;13.40;99.90
1594;DHT22;790;47.000;16.084;2023-05-29T04:46:39;13.50;99.90
1594;DHT22;790;47.000;16.084;2023-05-29T04:49:09;13.50;99.90
1594;DHT22;790;47.000;16.084;2023-05-29T04:51:36;13.50;99.90
1594;DHT22;790;47.000;16.084;2023-05-29T04:54:07;13.50;99.90
1594;DHT22;790;47.000;16.084;2023-05-29T04:56:36;13.60;99.90
1594;DHT22;790;47.000;16.084;2023-05-29T04:59:05;13.70;99.90
1594;DHT22;790;47.000;16.084;2023-05-29T05:01:32;13.70;99.90
1594;DHT22;790;47.000;16.084;2023-05-29T05:04:00;13.80;99.90
1594;DHT22;790;47.000;16.084;2023-05-29T05:06:27;13.90;99.90
1594;DHT22;790;47.000;16.084;2023-05-29T05:08:54;14.00;99.90
1594;DHT22;790;47.000;16.084;2023-05-29T05:11:22;14.10;99.90
1594;DHT22;790;47.000;16.084;2023-05-29T05:13:52;14.10;99.90
1594;DHT22;790;47.000;16.084;2023-05-29T05:16:19;14.20;99.90
1594;DHT22;790;47.000;16.084;2023-05-29T05:18:46;14.30;99.90
1594;DHT22;790;47.000;16.084;2023-05-29T05:21:13;14.40;99.90
1594;DHT22;790;47.000;16.084;2023-05-29T05:23:40;14.40;99.90
1594;DHT22;790;47.000;16.084;2023-05-29T05:26:07;14.40;99.90
1594;DHT22;790;47.000;16.084;2023-05-29T05:28:34;14.40;99.90
1594;DHT22;790;47.000;16.084;2023-05-29T05:31:03;14.50;99.90
1594;DHT22;790;47.000;16.084;2023-05-29T05:33:30;14.60;99.90
1594;DHT22;790;47.000;16.084;2023-05-29T05:35:57;14.70;99.90
1594;DHT22;790;47.000;16.084;2023-05-29T05:38:25;14.80;99.90
1594;DHT22;790;47.000;16.084;2023-05-29T05:40:52;14.90;99.90
1594;DHT22;790;47.000;16.084;2023-05-29T05:43:21;15.00;99.90
1594;DHT22;790;47.000;16.084;2023-05-29T05:45:48;15.10;99.90
1594;DHT22;790;47.000;16.084;2023-05-29T05:48:17;15.30;99.90
1594;DHT22;790;47.000;16.084;2023-05-29T05:50:43;15.30;99.90
1594;DHT22;790;47.000;16.084;2023-05-29T05:53:11;15.50;99.90
1594;DHT22;790;47.000;16.084;2023-05-29T05:55:38;15.50;99.90
1594;DHT22;790;47.000;16.084;2023-05-29T05:58:05;15.70;99.90
1594;DHT22;790;47.000;16.084;2023-05-29T06:00:32;15.80;99.90
1594;DHT22;790;47.000;16.084;2023-05-29T06:02:59;15.90;99.90
1594;DHT22;790;47.000;16.084;2023-05-29T06:05:31;16.10;99.90
1594;DHT22;790;47.000;16.084;2023-05-29T06:08:00;16.20;99.90
1594;DHT22;790;47.000;16.084;2023-05-29T06:10:27;16.40;99.90
1594;DHT22;790;47.000;16.084;2023-05-29T06:12:54;16.60;99.90
1594;DHT22;790;47.000;16.084;2023-05-29T06:15:21;16.90;99.90
1594;DHT22;790;47.000;16.084;2023-05-29T06:17:48;17.00;99.90
1594;DHT22;790;47.000;16.084;2023-05-29T06:20:17;17.10;99.90
1594;DHT22;790;47.000;16.084;2023-05-29T06:22:47;17.20;99.90
1594;DHT22;790;47.000;16.084;2023-05-29T06:25:16;17.30;99.90
1594;DHT22;790;47.000;16.084;2023-05-29T06:27:44;17.50;99.90
1594;DHT22;790;47.000;16.084;2023-05-29T06:30:12;17.60;99.90
1594;DHT22;790;47.000;16.084;2023-05-29T06:32:39;17.60;99.90
1594;DHT22;790;47.000;16.084;2023-05-29T06:35:07;17.80;99.90
1594;DHT22;790;47.000;16.084;2023-05-29T06:37:34;18.00;99.90
1594;DHT22;790;47.000;16.084;2023-05-29T06:40:03;18.00;99.90
1594;DHT22;790;47.000;16.084;2023-05-29T06:42:32;18.10;99.90
1594;DHT22;790;47.000;16.084;2023-05-29T06:44:59;18.20;99.90
1594;DHT22;790;47.000;16.084;2023-05-29T06:47:26;18.20;99.90
1594;DHT22;790;47.000;16.084;2023-05-29T06:49:53;18.40;99.90
1594;DHT22;790;47.000;16.084;2023-05-29T06:52:20;18.50;99.90
1594;DHT22;790;47.000;16.084;2023-05-29T06:54:47;18.60;99.90
1594;DHT22;790;47.000;16.084;2023-05-29T06:57:16;18.80;99.90
1594;DHT22;790;47.000;16.084;2023-05-29T06:59:43;19.00;99.90
1594;DHT22;790;47.000;16.084;2023-05-29T07:02:10;19.10;99.90
1594;DHT22;790;47.000;16.084;2023-05-29T07:04:38;19.20;99.90
1594;DHT22;790;47.000;16.084;2023-05-29T07:07:05;19.20;99.90
1594;DHT22;790;47.000;16.084;2023-05-29T07:09:33;19.30;99.90
1594;DHT22;790;47.000;16.084;2023-05-29T07:12:00;19.40;99.90
1594;DHT22;790;47.000;16.084;2023-05-29T07:14:32;19.50;99.90
1594;DHT22;790;47.000;16.084;2023-05-29T07:17:00;19.60;99.90
1594;DHT22;790;47.000;16.084;2023-05-29T07:19:27;19.60;99.90
1594;DHT22;790;47.000;16.084;2023-05-29T07:21:55;19.80;99.90
1594;DHT22;790;47.000;16.084;2023-05-29T07:24:22;20.00;99.90
1594;DHT22;790;47.000;16.084;2023-05-29T07:26:49;20.10;99.90
1594;DHT22;790;47.000;16.084;2023-05-29T07:29:16;20.20;99.90
1594;DHT22;790;47.000;16.084;2023-05-29T07:31:47;20.20;99.90
1594;DHT22;790;47.000;16.084;2023-05-29T07:34:15;20.40;99.90
1594;DHT22;790;47.000;16.084;2023-05-29T07:36:57;20.40;99.90
1594;DHT22;790;47.000;16.084;2023-05-29T07:39:25;20.50;99.90
1594;DHT22;790;47.000;16.084;2023-05-29T07:41:52;20.50;99.90
1594;DHT22;790;47.000;16.084;2023-05-29T07:44:19;20.60;99.90
1594;DHT22;790;47.000;16.084;2023-05-29T07:46:48;20.70;99.90
1594;DHT22;790;47.000;16.084;2023-05-29T07:49:15;20.90;99.90
1594;DHT22;790;47.000;16.084;2023-05-29T07:51:42;21.00;99.90
1594;DHT22;790;47.000;16.084;2023-05-29T07:54:09;21.00;99.90
1594;DHT22;790;47.000;16.084;2023-05-29T07:56:36;21.10;99.90
1594;DHT22;790;47.000;16.084;2023-05-29T07:59:04;21.10;99.90
1594;DHT22;790;47.000;16.084;2023-05-29T08:01:32;21.20;99.90
1594;DHT22;790;47.000;16.084;2023-05-29T08:04:01;21.30;99.90
1594;DHT22;790;47.000;16.084;2023-05-29T08:06:29;21.40;99.90
1594;DHT22;790;47.000;16.084;2023-05-29T08:08:58;21.60;99.90
1594;DHT22;790;47.000;16.084;2023-05-29T08:11:25;21.70;99.90
1594;DHT22;790;47.000;16.084;2023-05-29T08:13:52;21.90;99.90
1594;DHT22;790;47.000;16.084;2023-05-29T08:16:19;22.00;99.90
1594;DHT22;790;47.000;16.084;2023-05-29T08:18:48;22.10;99.90
1594;DHT22;790;47.000;16.084;2023-05-29T08:21:16;22.20;99.90
1594;DHT22;790;47.000;16.084;2023-05-29T08:23:43;22.20;99.90
1594;DHT22;790;47.000;16.084;2023-05-29T08:26:10;22.30;99.90
1594;DHT22;790;47.000;16.084;2023-05-29T08:28:38;22.50;99.90
1594;DHT22;790;47.000;16.084;2023-05-29T08:31:05;22.60;98.80
1594;DHT22;790;47.000;16.084;2023-05-29T08:33:32;22.70;99.90
1594;DHT22;790;47.000;16.084;2023-05-29T08:36:00;22.70;99.70
1594;DHT22;790;47.000;16.084;2023-05-29T08:38:29;22.60;98.50
1594;DHT22;790;47.000;16.084;2023-05-29T08:40:56;22.70;99.90
1594;DHT22;790;47.000;16.084;2023-05-29T08:43:24;22.80;99.00
1594;DHT22;790;47.000;16.084;2023-05-29T08:45:53;22.70;96.60
1594;DHT22;790;47.000;16.084;2023-05-29T08:48:23;22.70;97.90
1594;DHT22;790;47.000;16.084;2023-05-29T08:50:53;22.80;99.80
1594;DHT22;790;47.000;16.084;2023-05-29T08:53:21;23.00;99.90
1594;DHT22;790;47.000;16.084;2023-05-29T08:55:52;23.10;99.90
1594;DHT22;790;47.000;16.084;2023-05-29T08:58:22;23.10;99.90
1594;DHT22;790;47.000;16.084;2023-05-29T09:00:50;23.20;97.90
1594;DHT22;790;47.000;16.084;2023-05-29T09:03:17;23.30;99.20
1594;DHT22;790;47.000;16.084;2023-05-29T09:05:48;23.30;97.60
1594;DHT22;790;47.000;16.084;2023-05-29T09:08:16;23.40;99.30
1594;DHT22;790;47.000;16.084;2023-05-29T09:10:44;23.60;99.90
1594;DHT22;790;47.000;16.084;2023-05-29T09:13:13;23.80;99.90
1594;DHT22;790;47.000;16.084;2023-05-29T09:15:41;23.80;99.90
1594;DHT22;790;47.000;16.084;2023-05-29T09:18:09;24.00;99.90
1594;DHT22;790;47.000;16.084;2023-05-29T09:20:36;24.10;99.30
1594;DHT22;790;47.000;16.084;2023-05-29T09:23:04;24.10;99.90
1594;DHT22;790;47.000;16.084;2023-05-29T09:25:33;24.20;99.40
1594;DHT22;790;47.000;16.084;2023-05-29T09:28:03;24.30;99.90
1594;DHT22;790;47.000;16.084;2023-05-29T09:30:36;24.50;99.70
1594;DHT22;790;47.000;16.084;2023-05-29T09:33:04;24.70;99.40
1594;DHT22;790;47.000;16.084;2023-05-29T09:35:33;24.70;97.80
1594;DHT22;790;47.000;16.084;2023-05-29T09:38:00;24.80;98.80
1594;DHT22;790;47.000;16.084;2023-05-29T09:40:30;24.80;97.50
1594;DHT22;790;47.000;16.084;2023-05-29T09:43:10;24.90;98.10
1594;DHT22;790;47.000;16.084;2023-05-29T09:45:41;24.90;94.40
1594;DHT22;790;47.000;16.084;2023-05-29T09:48:12;24.90;95.00
1594;DHT22;790;47.000;16.084;2023-05-29T09:50:39;24.90;95.90
1594;DHT22;790;47.000;16.084;2023-05-29T09:53:16;25.00;96.10
1594;DHT22;790;47.000;16.084;2023-05-29T09:55:45;25.00;92.30
1594;DHT22;790;47.000;16.084;2023-05-29T09:58:13;24.90;90.80
1594;DHT22;790;47.000;16.084;2023-05-29T10:00:42;24.90;92.50
1594;DHT22;790;47.000;16.084;2023-05-29T10:03:09;25.00;92.00
1594;DHT22;790;47.000;16.084;2023-05-29T10:05:38;25.00;92.80
1594;DHT22;790;47.000;16.084;2023-05-29T10:08:09;25.10;92.50
1594;DHT22;790;47.000;16.084;2023-05-29T10:10:40;25.20;91.20
1594;DHT22;790;47.000;16.084;2023-05-29T10:13:11;25.10;92.10
1594;DHT22;790;47.000;16.084;2023-05-29T10:15:41;25.20;95.20
1594;DHT22;790;47.000;16.084;2023-05-29T10:18:16;25.40;95.30
1594;DHT22;790;47.000;16.084;2023-05-29T10:20:50;25.50;96.00
1594;DHT22;790;47.000;16.084;2023-05-29T10:23:21;25.60;95.90
1594;DHT22;790;47.000;16.084;2023-05-29T10:25:52;25.70;95.20
1594;DHT22;790;47.000;16.084;2023-05-29T10:28:19;25.80;94.20
1594;DHT22;790;47.000;16.084;2023-05-29T10:30:54;25.80;95.00
1594;DHT22;790;47.000;16.084;2023-05-29T10:33:43;25.90;93.50
1594;DHT22;790;47.000;16.084;2023-05-29T10:36:16;26.00;94.20
1594;DHT22;790;47.000;16.084;2023-05-29T10:38:47;26.00;93.00
1594;DHT22;790;47.000;16.084;2023-05-29T10:41:31;26.00;93.30
1594;DHT22;790;47.000;16.084;2023-05-29T10:44:38;25.90;93.10
1594;DHT22;790;47.000;16.084;2023-05-29T10:47:08;26.10;95.30
1594;DHT22;790;47.000;16.084;2023-05-29T10:49:38;26.10;93.40
1594;DHT22;790;47.000;16.084;2023-05-29T10:52:05;26.00;93.80
1594;DHT22;790;47.000;16.084;2023-05-29T10:54:50;26.10;93.30
1594;DHT22;790;47.000;16.084;2023-05-29T10:57:21;26.10;92.60
1594;DHT22;790;47.000;16.084;2023-05-29T10:59:58;26.10;93.70
1594;DHT22;790;47.000;16.084;2023-05-29T11:02:27;26.20;93.00
1594;DHT22;790;47.000;16.084;2023-05-29T11:05:19;26.10;93.10
1594;DHT22;790;47.000;16.084;2023-05-29T11:07:56;26.00;91.50
1594;DHT22;790;47.000;16.084;2023-05-29T11:10:58;26.10;92.50
1594;DHT22;790;47.000;16.084;2023-05-29T11:13:27;26.10;92.50
1594;DHT22;790;47.000;16.084;2023-05-29T11:16:09;26.10;93.10
1594;DHT22;790;47.000;16.084;2023-05-29T11:18:41;26.30;93.30
1594;DHT22;790;47.000;16.084;2023-05-29T11:21:23;26.20;93.30
1594;DHT22;790;47.000;16.084;2023-05-29T11:23:51;26.30;94.40
1594;DHT22;790;47.000;16.084;2023-05-29T11:26:22;26.50;94.00
1594;DHT22;790;47.000;16.084;2023-05-29T11:28:51;26.70;94.90
1594;DHT22;790;47.000;16.084;2023-05-29T11:31:19;26.90;94.50
1594;DHT22;790;47.000;16.084;2023-05-29T11:33:50;27.00;93.20
1594;DHT22;790;47.000;16.084;2023-05-29T11:36:18;27.10;92.60
1594;DHT22;790;47.000;16.084;2023-05-29T11:38:46;27.20;94.40
1594;DHT22;790;47.000;16.084;2023-05-29T11:41:13;27.30;93.30
1594;DHT22;790;47.000;16.084;2023-05-29T11:43:40;27.30;93.70
1594;DHT22;790;47.000;16.084;2023-05-29T11:46:17;27.10;93.00
1594;DHT22;790;47.000;16.084;2023-05-29T11:48:46;26.80;92.40
1594;DHT22;790;47.000;16.084;2023-05-29T11:51:15;26.60;92.40
1594;DHT22;790;47.000;16.084;2023-05-29T11:53:42;26.40;93.70
1594;DHT22;790;47.000;16.084;2023-05-29T11:56:10;26.20;94.10
1594;DHT22;790;47.000;16.084;2023-05-29T11:58:37;26.10;93.30
1594;DHT22;790;47.000;16.084;2023-05-29T12:01:05;25.90;92.70
1594;DHT22;790;47.000;16.084;2023-05-29T12:03:37;25.70;93.20
1594;DHT22;790;47.000;16.084;2023-05-29T12:06:05;25.40;94.00
1594;DHT22;790;47.000;16.084;2023-05-29T12:08:35;25.20;96.70
1594;DHT22;790;47.000;16.084;2023-05-29T12:11:03;25.10;96.20
1594;DHT22;790;47.000;16.084;2023-05-29T12:13:30;24.90;95.40
1594;DHT22;790;47.000;16.084;2023-05-29T12:16:01;25.00;97.80
1594;DHT22;790;47.000;16.084;2023-05-29T12:18:29;25.00;97.60
1594;DHT22;790;47.000;16.084;2023-05-29T12:21:00;25.10;98.20
1594;DHT22;790;47.000;16.084;2023-05-29T12:23:28;25.40;97.70
1594;DHT22;790;47.000;16.084;2023-05-29T12:25:58;25.60;97.90
1594;DHT22;790;47.000;16.084;2023-05-29T12:28:25;25.70;97.70
1594;DHT22;790;47.000;16.084;2023-05-29T12:30:58;25.70;97.30
1594;DHT22;790;47.000;16.084;2023-05-29T12:33:28;25.80;98.40
1594;DHT22;790;47.000;16.084;2023-05-29T12:36:01;25.90;96.60
1594;DHT22;790;47.000;16.084;2023-05-29T12:38:28;26.10;96.80
1594;DHT22;790;47.000;16.084;2023-05-29T12:40:57;26.30;95.40
1594;DHT22;790;47.000;16.084;2023-05-29T12:43:24;26.30;94.30
1594;DHT22;790;47.000;16.084;2023-05-29T12:45:54;26.40;93.90
1594;DHT22;790;47.000;16.084;2023-05-29T12:48:26;26.50;93.70
1594;DHT22;790;47.000;16.084;2023-05-29T12:50:53;26.50;94.60
1594;DHT22;790;47.000;16.084;2023-05-29T12:53:21;26.60;93.50
1594;DHT22;790;47.000;16.084;2023-05-29T12:55:48;26.70;94.80
1594;DHT22;790;47.000;16.084;2023-05-29T12:58:17;26.70;93.00
1594;DHT22;790;47.000;16.084;2023-05-29T13:00:45;26.80;92.60
1594;DHT22;790;47.000;16.084;2023-05-29T13:03:13;26.70;92.70
1594;DHT22;790;47.000;16.084;2023-05-29T13:05:40;26.70;91.10
1594;DHT22;790;47.000;16.084;2023-05-29T13:08:08;26.40;91.60
1594;DHT22;790;47.000;16.084;2023-05-29T13:10:35;26.40;92.60
1594;DHT22;790;47.000;16.084;2023-05-29T13:13:03;26.40;92.70
1594;DHT22;790;47.000;16.084;2023-05-29T13:15:31;26.40;93.10
1594;DHT22;790;47.000;16.084;2023-05-29T13:17:59;26.50;92.70
1594;DHT22;790;47.000;16.084;2023-05-29T13:20:26;26.50;90.00
1594;DHT22;790;47.000;16.084;2023-05-29T13:22:54;26.40;89.30
1594;DHT22;790;47.000;16.084;2023-05-29T13:25:21;26.40;92.80
1594;DHT22;790;47.000;16.084;2023-05-29T13:27:49;26.50;92.90
1594;DHT22;790;47.000;16.084;2023-05-29T13:30:17;26.60;94.00
1594;DHT22;790;47.000;16.084;2023-05-29T13:32:45;26.60;92.30
1594;DHT22;790;47.000;16.084;2023-05-29T13:35:12;26.60;92.80
1594;DHT22;790;47.000;16.084;2023-05-29T13:37:40;26.70;91.60
1594;DHT22;790;47.000;16.084;2023-05-29T13:40:09;26.50;88.80
1594;DHT22;790;47.000;16.084;2023-05-29T13:42:37;26.50;91.70
1594;DHT22;790;47.000;16.084;2023-05-29T13:45:05;26.50;92.00
1594;DHT22;790;47.000;16.084;2023-05-29T13:47:33;26.50;86.50
1594;DHT22;790;47.000;16.084;2023-05-29T13:50:03;26.60;87.20
1594;DHT22;790;47.000;16.084;2023-05-29T13:52:31;26.60;88.50
1594;DHT22;790;47.000;16.084;2023-05-29T13:54:58;26.60;84.70
1594;DHT22;790;47.000;16.084;2023-05-29T13:57:30;26.50;90.10
1594;DHT22;790;47.000;16.084;2023-05-29T13:59:58;26.50;90.20
1594;DHT22;790;47.000;16.084;2023-05-29T14:02:25;26.50;88.50
1594;DHT22;790;47.000;16.084;2023-05-29T14:04:52;26.40;88.00
1594;DHT22;790;47.000;16.084;2023-05-29T14:07:21;26.40;89.80
1594;DHT22;790;47.000;16.084;2023-05-29T14:09:48;26.50;88.90
1594;DHT22;790;47.000;16.084;2023-05-29T14:12:15;26.60;87.00
1594;DHT22;790;47.000;16.084;2023-05-29T14:14:42;26.40;86.80
1594;DHT22;790;47.000;16.084;2023-05-29T14:17:10;26.40;92.50
1594;DHT22;790;47.000;16.084;2023-05-29T14:19:38;26.40;90.70
1594;DHT22;790;47.000;16.084;2023-05-29T14:22:05;26.50;90.00
1594;DHT22;790;47.000;16.084;2023-05-29T14:24:34;26.60;89.00
1594;DHT22;790;47.000;16.084;2023-05-29T14:27:02;26.60;88.40
1594;DHT22;790;47.000;16.084;2023-05-29T14:29:29;26.60;84.90
1594;DHT22;790;47.000;16.084;2023-05-29T14:31:56;26.60;82.40
1594;DHT22;790;47.000;16.084;2023-05-29T14:34:23;26.50;85.10
1594;DHT22;790;47.000;16.084;2023-05-29T14:36:50;26.60;85.80
1594;DHT22;790;47.000;16.084;2023-05-29T14:39:18;26.60;86.60
1594;DHT22;790;47.000;16.084;2023-05-29T14:41:46;26.60;84.40
1594;DHT22;790;47.000;16.084;2023-05-29T14:44:14;26.70;86.90
1594;DHT22;790;47.000;16.084;2023-05-29T14:46:41;26.70;88.30
1594;DHT22;790;47.000;16.084;2023-05-29T14:49:08;26.60;84.20
1594;DHT22;790;47.000;16.084;2023-05-29T14:51:36;26.70;84.10
1594;DHT22;790;47.000;16.084;2023-05-29T14:54:04;26.70;85.80
1594;DHT22;790;47.000;16.084;2023-05-29T14:56:31;26.70;84.20
1594;DHT22;790;47.000;16.084;2023-05-29T14:59:00;26.70;82.00
1594;DHT22;790;47.000;16.084;2023-05-29T15:01:27;26.40;84.30
1594;DHT22;790;47.000;16.084;2023-05-29T15:03:54;26.40;86.50
1594;DHT22;790;47.000;16.084;2023-05-29T15:06:21;26.50;87.70
1594;DHT22;790;47.000;16.084;2023-05-29T15:08:49;26.60;87.40
1594;DHT22;790;47.000;16.084;2023-05-29T15:11:18;26.60;87.80
1594;DHT22;790;47.000;16.084;2023-05-29T15:13:45;26.60;87.50
1594;DHT22;790;47.000;16.084;2023-05-29T15:16:14;26.60;85.30
1594;DHT22;790;47.000;16.084;2023-05-29T15:18:42;26.60;87.10
1594;DHT22;790;47.000;16.084;2023-05-29T15:21:09;26.50;86.90
1594;DHT22;790;47.000;16.084;2023-05-29T15:23:36;26.50;86.50
1594;DHT22;790;47.000;16.084;2023-05-29T15:26:05;26.40;85.50
1594;DHT22;790;47.000;16.084;2023-05-29T15:28:32;26.40;88.10
1594;DHT22;790;47.000;16.084;2023-05-29T15:30:59;26.40;87.30
1594;DHT22;790;47.000;16.084;2023-05-29T15:33:28;26.40;85.90
1594;DHT22;790;47.000;16.084;2023-05-29T15:35:55;26.30;85.20
1594;DHT22;790;47.000;16.084;2023-05-29T15:38:22;26.20;85.70
1594;DHT22;790;47.000;16.084;2023-05-29T15:40:49;26.20;85.00
1594;DHT22;790;47.000;16.084;2023-05-29T15:43:17;26.10;84.90
1594;DHT22;790;47.000;16.084;2023-05-29T15:45:44;26.10;87.10
1594;DHT22;790;47.000;16.084;2023-05-29T15:48:12;26.10;87.70
1594;DHT22;790;47.000;16.084;2023-05-29T15:50:40;26.00;83.00
1594;DHT22;790;47.000;16.084;2023-05-29T15:53:07;26.00;85.40
1594;DHT22;790;47.000;16.084;2023-05-29T15:55:34;25.80;86.80
1594;DHT22;790;47.000;16.084;2023-05-29T15:58:02;25.80;89.10
1594;DHT22;790;47.000;16.084;2023-05-29T16:00:29;25.70;85.50
1594;DHT22;790;47.000;16.084;2023-05-29T16:02:56;25.80;87.00
1594;DHT22;790;47.000;16.084;2023-05-29T16:05:23;25.70;86.30
1594;DHT22;790;47.000;16.084;2023-05-29T16:07:51;25.70;86.80
1594;DHT22;790;47.000;16.084;2023-05-29T16:10:19;25.60;85.00
1594;DHT22;790;47.000;16.084;2023-05-29T16:12:47;25.60;87.70
1594;DHT22;790;47.000;16.084;2023-05-29T16:15:16;25.70;86.40